Terminal Aerodrome Forecast
Issued by NWS

Home | Current Version | Previous Version | Text Only | Print | Product List | Glossary On
Versions: 1 2 3 4 5 6 7 8 9 10 11 12 13 14 15 16 17 18 19 20 21 22
000
FTUS46 KLOX 160905 AAA
TAFOXR
TAF AMD
KOXR 160905Z 1609/1706 VRB03KT 6SM FU BR BKN007
     FM161600 05008KT 6SM FU SCT250
     FM162100 27010KT P6SM SCT250
     FM170300 05007KT P6SM SCT250=

USA.gov is the U.S. government's official web portal to all federal, state and local government web resources and services.